sensor_id;sensor_type;location;lat;lon;timestamp;pressure;altitude;pressure_sealevel;temperature;humidity
42725;BME280;28369;44.046;23.014;2023-01-28T00:00:33;100523.31;;;2.47;100.00
42725;BME280;28369;44.046;23.014;2023-01-28T00:03:00;100441.47;;;1.90;100.00
42725;BME280;28369;44.046;23.014;2023-01-28T00:05:25;100628.50;;;3.05;100.00
42725;BME280;28369;44.046;23.014;2023-01-28T00:07:51;100472.94;;;2.18;100.00
42725;BME280;28369;44.046;23.014;2023-01-28T00:10:17;100754.81;;;3.75;100.00
42725;BME280;28369;44.046;23.014;2023-01-28T00:12:43;100436.66;;;1.83;100.00
42725;BME280;28369;44.046;23.014;2023-01-28T00:15:09;100486.63;;;1.86;100.00
42725;BME280;28369;44.046;23.014;2023-01-28T00:17:36;100646.19;;;2.81;100.00
42725;BME280;28369;44.046;23.014;2023-01-28T00:20:05;100788.13;;;3.51;100.00
42725;BME280;28369;44.046;23.014;2023-01-28T00:22:31;100839.44;;;3.65;100.00
42725;BME280;28369;44.046;23.014;2023-01-28T00:24:57;100642.03;;;2.26;100.00
42725;BME280;28369;44.046;23.014;2023-01-28T00:27:23;100625.44;;;2.11;100.00
42725;BME280;28369;44.046;23.014;2023-01-28T00:29:49;100644.31;;;2.15;100.00
42725;BME280;28369;44.046;23.014;2023-01-28T00:32:14;100499.19;;;1.23;100.00
42725;BME280;28369;44.046;23.014;2023-01-28T00:34:40;100268.97;;;-0.09;100.00
42725;BME280;28369;44.046;23.014;2023-01-28T00:37:05;100507.13;;;1.00;100.00
42725;BME280;28369;44.046;23.014;2023-01-28T00:39:31;100876.44;;;3.35;100.00
42725;BME280;28369;44.046;23.014;2023-01-28T00:41:56;100482.16;;;0.99;100.00
42725;BME280;28369;44.046;23.014;2023-01-28T00:44:22;100544.13;;;1.41;100.00
42725;BME280;28369;44.046;23.014;2023-01-28T00:46:48;100845.25;;;3.17;100.00
42725;BME280;28369;44.046;23.014;2023-01-28T00:49:14;100656.72;;;2.25;100.00
42725;BME280;28369;44.046;23.014;2023-01-28T00:51:39;100807.97;;;3.18;100.00
42725;BME280;28369;44.046;23.014;2023-01-28T00:54:05;100692.41;;;2.57;100.00
42725;BME280;28369;44.046;23.014;2023-01-28T00:56:30;100731.38;;;2.74;100.00
42725;BME280;28369;44.046;23.014;2023-01-28T00:58:56;100808.81;;;3.19;100.00
42725;BME280;28369;44.046;23.014;2023-01-28T01:01:24;100528.88;;;1.34;100.00
42725;BME280;28369;44.046;23.014;2023-01-28T01:03:50;100846.09;;;3.35;100.00
42725;BME280;28369;44.046;23.014;2023-01-28T01:06:22;100843.56;;;3.34;100.00
42725;BME280;28369;44.046;23.014;2023-01-28T01:08:48;100441.13;;;1.09;100.00
42725;BME280;28369;44.046;23.014;2023-01-28T01:11:14;100532.50;;;1.67;100.00
42725;BME280;28369;44.046;23.014;2023-01-28T01:13:40;100809.16;;;3.28;100.00
42725;BME280;28369;44.046;23.014;2023-01-28T01:16:08;100357.78;;;0.83;100.00
42725;BME280;28369;44.046;23.014;2023-01-28T01:18:34;100611.84;;;2.58;100.00
42725;BME280;28369;44.046;23.014;2023-01-28T01:21:01;100498.97;;;1.81;100.00
42725;BME280;28369;44.046;23.014;2023-01-28T01:23:27;100823.53;;;4.03;100.00
42725;BME280;28369;44.046;23.014;2023-01-28T01:25:53;100643.13;;;2.73;100.00
42725;BME280;28369;44.046;23.014;2023-01-28T01:28:19;100611.19;;;2.55;100.00
42725;BME280;28369;44.046;23.014;2023-01-28T01:30:45;100840.94;;;4.02;100.00
42725;BME280;28369;44.046;23.014;2023-01-28T01:33:11;100559.16;;;2.23;100.00
42725;BME280;28369;44.046;23.014;2023-01-28T01:35:37;100462.44;;;1.51;100.00
42725;BME280;28369;44.046;23.014;2023-01-28T01:38:02;100384.00;;;1.12;100.00
42725;BME280;28369;44.046;23.014;2023-01-28T01:40:28;100824.59;;;3.83;100.00
42725;BME280;28369;44.046;23.014;2023-01-28T01:42:54;100804.47;;;3.70;100.00
42725;BME280;28369;44.046;23.014;2023-01-28T01:45:20;100528.41;;;1.98;100.00
42725;BME280;28369;44.046;23.014;2023-01-28T01:50:36;100662.09;;;2.57;100.00
42725;BME280;28369;44.046;23.014;2023-01-28T01:53:16;100553.88;;;1.72;100.00
42725;BME280;28369;44.046;23.014;2023-01-28T01:55:46;100406.13;;;0.64;100.00
42725;BME280;28369;44.046;23.014;2023-01-28T01:58:15;100686.22;;;2.42;100.00
42725;BME280;28369;44.046;23.014;2023-01-28T02:00:43;100912.66;;;3.73;100.00
42725;BME280;28369;44.046;23.014;2023-01-28T02:03:10;100666.06;;;2.30;100.00
42725;BME280;28369;44.046;23.014;2023-01-28T02:05:36;100283.97;;;-0.18;100.00
42725;BME280;28369;44.046;23.014;2023-01-28T02:08:02;100645.22;;;2.31;100.00
42725;BME280;28369;44.046;23.014;2023-01-28T02:10:54;100850.16;;;3.41;100.00
42725;BME280;28369;44.046;23.014;2023-01-28T02:13:24;100720.56;;;2.47;100.00
42725;BME280;28369;44.046;23.014;2023-01-28T02:15:50;100677.13;;;2.33;100.00
42725;BME280;28369;44.046;23.014;2023-01-28T02:18:16;100758.16;;;2.75;100.00
42725;BME280;28369;44.046;23.014;2023-01-28T02:28:33;100675.06;;;1.86;100.00
42725;BME280;28369;44.046;23.014;2023-01-28T02:31:13;100914.38;;;3.39;100.00
42725;BME280;28369;44.046;23.014;2023-01-28T02:34:02;100920.56;;;3.36;100.00
42725;BME280;28369;44.046;23.014;2023-01-28T02:36:42;100888.28;;;3.23;100.00
42725;BME280;28369;44.046;23.014;2023-01-28T02:39:23;100860.75;;;3.01;100.00
42725;BME280;28369;44.046;23.014;2023-01-28T02:41:55;100730.16;;;2.28;100.00
42725;BME280;28369;44.046;23.014;2023-01-28T02:44:22;100787.53;;;2.75;100.00
42725;BME280;28369;44.046;23.014;2023-01-28T02:46:50;100830.56;;;2.81;100.00
42725;BME280;28369;44.046;23.014;2023-01-28T02:49:40;100820.63;;;2.89;100.00
42725;BME280;28369;44.046;23.014;2023-01-28T02:55:38;100675.44;;;2.15;100.00
42725;BME280;28369;44.046;23.014;2023-01-28T02:58:20;100876.72;;;3.11;100.00
42725;BME280;28369;44.046;23.014;2023-01-28T03:00:55;100822.44;;;2.70;100.00
42725;BME280;28369;44.046;23.014;2023-01-28T03:03:30;100834.38;;;2.91;100.00
42725;BME280;28369;44.046;23.014;2023-01-28T03:06:02;100665.66;;;1.83;100.00
42725;BME280;28369;44.046;23.014;2023-01-28T03:08:46;100638.06;;;1.82;100.00
42725;BME280;28369;44.046;23.014;2023-01-28T03:11:35;100803.06;;;2.77;100.00
42725;BME280;28369;44.046;23.014;2023-01-28T03:14:22;100564.28;;;1.34;100.00
42725;BME280;28369;44.046;23.014;2023-01-28T03:17:56;100891.34;;;3.31;100.00
42725;BME280;28369;44.046;23.014;2023-01-28T03:20:14;100884.22;;;3.17;100.00
42725;BME280;28369;44.046;23.014;2023-01-28T03:23:02;100833.41;;;2.94;100.00
42725;BME280;28369;44.046;23.014;2023-01-28T03:25:52;100744.41;;;2.19;100.00
42725;BME280;28369;44.046;23.014;2023-01-28T03:28:40;100883.78;;;3.09;100.00
42725;BME280;28369;44.046;23.014;2023-01-28T03:31:26;100913.13;;;3.28;100.00
42725;BME280;28369;44.046;23.014;2023-01-28T03:34:12;100666.34;;;1.87;100.00
42725;BME280;28369;44.046;23.014;2023-01-28T03:36:56;100913.81;;;3.50;100.00
42725;BME280;28369;44.046;23.014;2023-01-28T03:39:25;100690.28;;;2.11;100.00
42725;BME280;28369;44.046;23.014;2023-01-28T03:42:11;100892.47;;;3.43;100.00
42725;BME280;28369;44.046;23.014;2023-01-28T03:44:38;100920.63;;;3.52;100.00
42725;BME280;28369;44.046;23.014;2023-01-28T03:47:24;100701.22;;;2.18;100.00
42725;BME280;28369;44.046;23.014;2023-01-28T03:49:51;100942.97;;;3.74;100.00
42725;BME280;28369;44.046;23.014;2023-01-28T03:52:20;100838.06;;;3.22;100.00
42725;BME280;28369;44.046;23.014;2023-01-28T03:54:46;100646.72;;;2.00;100.00
42725;BME280;28369;44.046;23.014;2023-01-28T03:57:14;100877.66;;;3.45;100.00
42725;BME280;28369;44.046;23.014;2023-01-28T03:59:39;100733.19;;;2.55;100.00
42725;BME280;28369;44.046;23.014;2023-01-28T04:02:06;100735.84;;;2.36;100.00
42725;BME280;28369;44.046;23.014;2023-01-28T04:04:31;100849.53;;;3.18;100.00
42725;BME280;28369;44.046;23.014;2023-01-28T04:06:57;100440.06;;;0.58;100.00
42725;BME280;28369;44.046;23.014;2023-01-28T04:09:23;100883.03;;;3.42;100.00
42725;BME280;28369;44.046;23.014;2023-01-28T04:11:49;100748.41;;;2.44;100.00
42725;BME280;28369;44.046;23.014;2023-01-28T04:14:16;100373.66;;;-0.01;100.00
42725;BME280;28369;44.046;23.014;2023-01-28T04:16:41;100667.00;;;2.10;100.00
42725;BME280;28369;44.046;23.014;2023-01-28T04:19:08;100487.00;;;0.69;100.00
42725;BME280;28369;44.046;23.014;2023-01-28T04:21:34;100735.28;;;2.47;100.00
42725;BME280;28369;44.046;23.014;2023-01-28T04:24:00;100472.28;;;0.89;100.00
42725;BME280;28369;44.046;23.014;2023-01-28T04:26:27;100981.66;;;3.80;100.00
42725;BME280;28369;44.046;23.014;2023-01-28T04:28:53;100441.03;;;0.55;100.00
42725;BME280;28369;44.046;23.014;2023-01-28T04:31:19;100729.34;;;2.45;100.00
42725;BME280;28369;44.046;23.014;2023-01-28T04:33:45;100453.13;;;0.55;100.00
42725;BME280;28369;44.046;23.014;2023-01-28T04:36:10;100968.28;;;3.70;100.00
42725;BME280;28369;44.046;23.014;2023-01-28T04:38:36;100696.25;;;2.13;100.00
42725;BME280;28369;44.046;23.014;2023-01-28T04:41:01;100301.75;;;-0.30;100.00
42725;BME280;28369;44.046;23.014;2023-01-28T04:43:27;100794.16;;;2.46;100.00
42725;BME280;28369;44.046;23.014;2023-01-28T04:45:52;100873.31;;;3.10;100.00
42725;BME280;28369;44.046;23.014;2023-01-28T04:48:18;100974.09;;;3.75;100.00
42725;BME280;28369;44.046;23.014;2023-01-28T04:50:44;100837.13;;;2.88;100.00
42725;BME280;28369;44.046;23.014;2023-01-28T04:53:10;100920.41;;;3.39;100.00
42725;BME280;28369;44.046;23.014;2023-01-28T04:55:35;100970.97;;;3.86;100.00
42725;BME280;28369;44.046;23.014;2023-01-28T04:58:01;100495.00;;;0.63;100.00
42725;BME280;28369;44.046;23.014;2023-01-28T05:00:27;100365.03;;;0.01;100.00
42725;BME280;28369;44.046;23.014;2023-01-28T05:02:52;100817.06;;;2.92;100.00
42725;BME280;28369;44.046;23.014;2023-01-28T05:05:18;100762.53;;;2.38;100.00
42725;BME280;28369;44.046;23.014;2023-01-28T05:07:46;100677.72;;;1.84;100.00
42725;BME280;28369;44.046;23.014;2023-01-28T05:10:14;100572.84;;;1.17;100.00
42725;BME280;28369;44.046;23.014;2023-01-28T05:12:43;100774.78;;;2.34;100.00
42725;BME280;28369;44.046;23.014;2023-01-28T05:15:08;100770.00;;;2.44;100.00
42725;BME280;28369;44.046;23.014;2023-01-28T05:17:34;100663.56;;;1.72;100.00
42725;BME280;28369;44.046;23.014;2023-01-28T05:19:59;100881.09;;;3.28;100.00
42725;BME280;28369;44.046;23.014;2023-01-28T05:22:25;100579.97;;;1.31;100.00
42725;BME280;28369;44.046;23.014;2023-01-28T05:24:50;100795.09;;;2.63;100.00
42725;BME280;28369;44.046;23.014;2023-01-28T05:27:16;100794.84;;;2.50;100.00
42725;BME280;28369;44.046;23.014;2023-01-28T05:29:41;100753.31;;;2.13;100.00
42725;BME280;28369;44.046;23.014;2023-01-28T05:32:07;100454.34;;;0.27;100.00
42725;BME280;28369;44.046;23.014;2023-01-28T05:34:32;100779.41;;;2.47;100.00
42725;BME280;28369;44.046;23.014;2023-01-28T05:36:58;100845.94;;;2.67;100.00
42725;BME280;28369;44.046;23.014;2023-01-28T05:39:23;100544.00;;;0.86;100.00
42725;BME280;28369;44.046;23.014;2023-01-28T05:41:49;100680.75;;;1.75;100.00
42725;BME280;28369;44.046;23.014;2023-01-28T05:44:14;100594.13;;;1.24;100.00
42725;BME280;28369;44.046;23.014;2023-01-28T05:46:40;100682.13;;;1.82;100.00
42725;BME280;28369;44.046;23.014;2023-01-28T05:49:10;100406.53;;;0.16;100.00
42725;BME280;28369;44.046;23.014;2023-01-28T05:51:41;100840.75;;;2.67;100.00
42725;BME280;28369;44.046;23.014;2023-01-28T05:54:07;100833.69;;;2.51;100.00
42725;BME280;28369;44.046;23.014;2023-01-28T05:56:33;100628.00;;;1.38;100.00
42725;BME280;28369;44.046;23.014;2023-01-28T05:59:01;100474.13;;;0.28;100.00
42725;BME280;28369;44.046;23.014;2023-01-28T06:01:27;100832.66;;;2.73;100.00
42725;BME280;28369;44.046;23.014;2023-01-28T06:03:52;100858.50;;;2.76;100.00
42725;BME280;28369;44.046;23.014;2023-01-28T06:06:18;100617.16;;;1.30;100.00
42725;BME280;28369;44.046;23.014;2023-01-28T06:08:43;100832.66;;;2.73;100.00
42725;BME280;28369;44.046;23.014;2023-01-28T06:11:09;100941.81;;;3.44;100.00
42725;BME280;28369;44.046;23.014;2023-01-28T06:13:34;101026.78;;;4.14;99.50
42725;BME280;28369;44.046;23.014;2023-01-28T06:16:01;101073.78;;;4.11;98.93
42725;BME280;28369;44.046;23.014;2023-01-28T06:18:26;101013.72;;;3.80;99.52
42725;BME280;28369;44.046;23.014;2023-01-28T06:20:52;101061.09;;;4.22;99.07
42725;BME280;28369;44.046;23.014;2023-01-28T06:23:17;100938.03;;;3.33;98.52
42725;BME280;28369;44.046;23.014;2023-01-28T06:25:43;100748.09;;;2.32;98.25
42725;BME280;28369;44.046;23.014;2023-01-28T06:28:08;100783.56;;;2.51;98.20
42725;BME280;28369;44.046;23.014;2023-01-28T06:30:34;101007.84;;;3.94;98.15
42725;BME280;28369;44.046;23.014;2023-01-28T06:32:59;100820.53;;;2.56;98.58
42725;BME280;28369;44.046;23.014;2023-01-28T06:35:25;100796.53;;;2.51;97.85
42725;BME280;28369;44.046;23.014;2023-01-28T06:37:51;100845.88;;;3.05;97.88
42725;BME280;28369;44.046;23.014;2023-01-28T06:40:18;100845.31;;;2.98;97.59
42725;BME280;28369;44.046;23.014;2023-01-28T06:42:43;100548.78;;;1.15;96.65
42725;BME280;28369;44.046;23.014;2023-01-28T06:45:09;100737.53;;;2.18;96.55
42725;BME280;28369;44.046;23.014;2023-01-28T06:47:37;100690.97;;;1.97;96.61
42725;BME280;28369;44.046;23.014;2023-01-28T06:50:03;100833.88;;;3.02;95.75
42725;BME280;28369;44.046;23.014;2023-01-28T06:52:29;100753.22;;;2.51;95.12
42725;BME280;28369;44.046;23.014;2023-01-28T06:54:54;100881.19;;;3.26;95.14
42725;BME280;28369;44.046;23.014;2023-01-28T06:57:19;100868.72;;;3.33;94.45
42725;BME280;28369;44.046;23.014;2023-01-28T06:59:45;100754.09;;;2.52;94.93
42725;BME280;28369;44.046;23.014;2023-01-28T07:02:11;100817.22;;;2.89;95.03
42725;BME280;28369;44.046;23.014;2023-01-28T07:04:36;101098.47;;;4.72;94.42
42725;BME280;28369;44.046;23.014;2023-01-28T07:07:02;100979.69;;;3.85;93.50
42725;BME280;28369;44.046;23.014;2023-01-28T07:09:27;101034.72;;;4.46;93.36
42725;BME280;28369;44.046;23.014;2023-01-28T07:11:53;101090.81;;;4.69;94.45
42725;BME280;28369;44.046;23.014;2023-01-28T07:14:18;101028.56;;;4.13;94.58
42725;BME280;28369;44.046;23.014;2023-01-28T07:16:44;100806.19;;;2.84;95.21
42725;BME280;28369;44.046;23.014;2023-01-28T07:19:09;101052.44;;;4.22;95.00
42725;BME280;28369;44.046;23.014;2023-01-28T07:21:35;101084.72;;;4.53;94.68
42725;BME280;28369;44.046;23.014;2023-01-28T07:24:00;100880.72;;;3.18;95.32
42725;BME280;28369;44.046;23.014;2023-01-28T07:26:26;100851.81;;;2.89;95.12
42725;BME280;28369;44.046;23.014;2023-01-28T07:28:51;100932.09;;;3.48;94.35
42725;BME280;28369;44.046;23.014;2023-01-28T07:31:17;100782.09;;;2.63;94.08
42725;BME280;28369;44.046;23.014;2023-01-28T07:33:42;100985.34;;;3.93;94.52
42725;BME280;28369;44.046;23.014;2023-01-28T07:36:09;100855.41;;;3.04;93.96
42725;BME280;28369;44.046;23.014;2023-01-28T07:38:35;101093.84;;;4.44;94.24
42725;BME280;28369;44.046;23.014;2023-01-28T07:41:00;100731.44;;;2.19;93.79
42725;BME280;28369;44.046;23.014;2023-01-28T07:43:26;100676.56;;;2.09;93.49
42725;BME280;28369;44.046;23.014;2023-01-28T07:45:51;100926.28;;;3.43;93.39
42725;BME280;28369;44.046;23.014;2023-01-28T07:48:16;100691.66;;;2.18;93.11
42725;BME280;28369;44.046;23.014;2023-01-28T07:50:42;100523.34;;;1.04;93.26
42725;BME280;28369;44.046;23.014;2023-01-28T07:53:10;100536.72;;;1.14;93.11
42725;BME280;28369;44.046;23.014;2023-01-28T07:55:37;100905.31;;;3.28;94.05
42725;BME280;28369;44.046;23.014;2023-01-28T07:58:04;100719.31;;;2.19;93.56
42725;BME280;28369;44.046;23.014;2023-01-28T08:00:32;101122.44;;;4.61;94.46
42725;BME280;28369;44.046;23.014;2023-01-28T08:03:00;100668.56;;;2.14;93.50
42725;BME280;28369;44.046;23.014;2023-01-28T08:05:32;100767.75;;;2.55;93.50
42725;BME280;28369;44.046;23.014;2023-01-28T08:08:03;100748.34;;;2.45;93.66
42725;BME280;28369;44.046;23.014;2023-01-28T08:10:29;100509.13;;;1.13;92.76
42725;BME280;28369;44.046;23.014;2023-01-28T08:12:55;100824.63;;;3.14;93.14
42725;BME280;28369;44.046;23.014;2023-01-28T08:15:23;100800.03;;;2.86;92.05
42725;BME280;28369;44.046;23.014;2023-01-28T08:17:49;100611.16;;;1.85;92.72
42725;BME280;28369;44.046;23.014;2023-01-28T08:20:15;101031.88;;;4.50;92.67
42725;BME280;28369;44.046;23.014;2023-01-28T08:22:41;100982.44;;;3.82;92.32
42725;BME280;28369;44.046;23.014;2023-01-28T08:25:06;101106.00;;;4.94;91.62
42725;BME280;28369;44.046;23.014;2023-01-28T08:27:32;100687.97;;;2.59;90.06
42725;BME280;28369;44.046;23.014;2023-01-28T08:29:57;100681.78;;;2.44;90.30
42725;BME280;28369;44.046;23.014;2023-01-28T08:32:23;100802.53;;;3.05;90.03
42725;BME280;28369;44.046;23.014;2023-01-28T08:34:48;100903.91;;;3.91;90.17
42725;BME280;28369;44.046;23.014;2023-01-28T08:37:14;100939.91;;;3.83;89.81
42725;BME280;28369;44.046;23.014;2023-01-28T08:39:39;100983.94;;;4.04;90.41
42725;BME280;28369;44.046;23.014;2023-01-28T08:42:06;101155.91;;;5.20;90.39
42725;BME280;28369;44.046;23.014;2023-01-28T08:44:31;100949.16;;;3.89;90.23
42725;BME280;28369;44.046;23.014;2023-01-28T08:46:57;100794.28;;;3.15;90.54
42725;BME280;28369;44.046;23.014;2023-01-28T08:49:23;100646.81;;;2.34;90.35
42725;BME280;28369;44.046;23.014;2023-01-28T08:51:48;100995.50;;;4.49;90.19
42725;BME280;28369;44.046;23.014;2023-01-28T08:54:14;101145.44;;;5.04;90.90
42725;BME280;28369;44.046;23.014;2023-01-28T08:56:39;100920.09;;;3.80;91.48
42725;BME280;28369;44.046;23.014;2023-01-28T08:59:11;100937.00;;;3.72;91.88
42725;BME280;28369;44.046;23.014;2023-01-28T09:01:37;100788.25;;;2.97;92.22
42725;BME280;28369;44.046;23.014;2023-01-28T09:04:02;101162.06;;;5.19;92.67
42725;BME280;28369;44.046;23.014;2023-01-28T09:06:28;101115.38;;;4.81;92.59
42725;BME280;28369;44.046;23.014;2023-01-28T09:08:58;100871.94;;;3.38;92.09
42725;BME280;28369;44.046;23.014;2023-01-28T09:11:24;101179.91;;;5.43;92.40
42725;BME280;28369;44.046;23.014;2023-01-28T09:13:49;100595.50;;;1.69;91.65
42725;BME280;28369;44.046;23.014;2023-01-28T09:16:15;100974.28;;;4.06;91.55
42725;BME280;28369;44.046;23.014;2023-01-28T09:18:41;100563.34;;;1.90;90.86
42725;BME280;28369;44.046;23.014;2023-01-28T09:21:06;100860.53;;;3.58;91.56
42725;BME280;28369;44.046;23.014;2023-01-28T09:23:36;100813.31;;;3.15;91.29
42725;BME280;28369;44.046;23.014;2023-01-28T09:26:03;100965.31;;;4.29;90.70
42725;BME280;28369;44.046;23.014;2023-01-28T09:28:29;100962.75;;;4.45;90.22
42725;BME280;28369;44.046;23.014;2023-01-28T09:31:07;100932.13;;;4.32;90.35
42725;BME280;28369;44.046;23.014;2023-01-28T09:33:34;101035.50;;;4.64;91.05
42725;BME280;28369;44.046;23.014;2023-01-28T09:36:04;100791.75;;;2.96;91.72
42725;BME280;28369;44.046;23.014;2023-01-28T09:38:30;100754.03;;;3.06;92.02
42725;BME280;28369;44.046;23.014;2023-01-28T09:40:57;101024.19;;;4.65;92.57
42725;BME280;28369;44.046;23.014;2023-01-28T09:46:12;101043.31;;;4.97;91.11
42725;BME280;28369;44.046;23.014;2023-01-28T09:48:42;101200.28;;;5.52;91.71
42725;BME280;28369;44.046;23.014;2023-01-28T09:51:14;100939.56;;;4.07;92.41
42725;BME280;28369;44.046;23.014;2023-01-28T09:53:44;100558.72;;;1.61;92.50
42725;BME280;28369;44.046;23.014;2023-01-28T09:56:18;100908.81;;;3.80;92.59
42725;BME280;28369;44.046;23.014;2023-01-28T09:58:46;100964.34;;;4.14;93.26
42725;BME280;28369;44.046;23.014;2023-01-28T10:01:32;101184.72;;;5.66;93.13
42725;BME280;28369;44.046;23.014;2023-01-28T10:09:38;101186.16;;;5.72;92.19
42725;BME280;28369;44.046;23.014;2023-01-28T10:12:15;101182.19;;;5.81;92.12
42725;BME280;28369;44.046;23.014;2023-01-28T10:17:27;100635.69;;;2.32;92.79
42725;BME280;28369;44.046;23.014;2023-01-28T10:22:43;100919.63;;;4.23;92.53
42725;BME280;28369;44.046;23.014;2023-01-28T10:25:22;100776.94;;;3.49;92.63
42725;BME280;28369;44.046;23.014;2023-01-28T10:27:50;100664.16;;;2.68;92.15
42725;BME280;28369;44.046;23.014;2023-01-28T10:30:21;101167.47;;;6.12;91.56
42725;BME280;28369;44.046;23.014;2023-01-28T10:32:58;101168.22;;;6.14;90.79
42725;BME280;28369;44.046;23.014;2023-01-28T10:35:26;100834.97;;;3.67;90.11
42725;BME280;28369;44.046;23.014;2023-01-28T10:38:00;100567.16;;;2.18;89.62
42725;BME280;28369;44.046;23.014;2023-01-28T10:40:26;100883.00;;;4.10;91.11
42725;BME280;28369;44.046;23.014;2023-01-28T10:42:53;100740.03;;;3.08;91.80
42725;BME280;28369;44.046;23.014;2023-01-28T10:45:31;100537.56;;;1.87;90.85
42725;BME280;28369;44.046;23.014;2023-01-28T10:48:03;100861.88;;;3.83;92.22
42725;BME280;28369;44.046;23.014;2023-01-28T10:50:31;100930.63;;;4.28;91.39
42725;BME280;28369;44.046;23.014;2023-01-28T10:52:59;100996.53;;;4.78;91.40
42725;BME280;28369;44.046;23.014;2023-01-28T10:55:37;100937.88;;;4.39;92.07
42725;BME280;28369;44.046;23.014;2023-01-28T10:58:46;100823.00;;;3.46;91.21
42725;BME280;28369;44.046;23.014;2023-01-28T11:01:12;100932.47;;;4.26;91.99
42725;BME280;28369;44.046;23.014;2023-01-28T11:03:50;100496.19;;;1.32;92.16
42725;BME280;28369;44.046;23.014;2023-01-28T11:06:28;101031.66;;;4.71;93.39
42725;BME280;28369;44.046;23.014;2023-01-28T11:08:54;100904.31;;;4.17;91.83
42725;BME280;28369;44.046;23.014;2023-01-28T11:11:24;100675.59;;;2.64;91.68
42725;BME280;28369;44.046;23.014;2023-01-28T11:13:52;100902.25;;;3.73;93.05
42725;BME280;28369;44.046;23.014;2023-01-28T11:16:19;100486.44;;;1.37;92.69
42725;BME280;28369;44.046;23.014;2023-01-28T11:19:01;100454.41;;;1.20;91.97
42725;BME280;28369;44.046;23.014;2023-01-28T11:21:29;100992.75;;;4.52;92.80
42725;BME280;28369;44.046;23.014;2023-01-28T11:24:01;100723.34;;;2.79;93.06
42725;BME280;28369;44.046;23.014;2023-01-28T11:26:31;100811.97;;;3.59;93.06
42725;BME280;28369;44.046;23.014;2023-01-28T11:28:57;100785.34;;;3.20;93.70
42725;BME280;28369;44.046;23.014;2023-01-28T11:31:23;100690.28;;;2.48;94.64
42725;BME280;28369;44.046;23.014;2023-01-28T11:33:57;101165.56;;;5.18;94.54
42725;BME280;28369;44.046;23.014;2023-01-28T11:36:28;100780.66;;;3.27;93.23
42725;BME280;28369;44.046;23.014;2023-01-28T11:39:13;100761.72;;;3.25;93.05
42725;BME280;28369;44.046;23.014;2023-01-28T11:41:41;100770.78;;;3.00;92.77
42725;BME280;28369;44.046;23.014;2023-01-28T11:44:26;100903.47;;;4.17;93.22
42725;BME280;28369;44.046;23.014;2023-01-28T11:50:14;100716.91;;;2.86;93.53
42725;BME280;28369;44.046;23.014;2023-01-28T11:52:51;100884.06;;;4.06;93.43
42725;BME280;28369;44.046;23.014;2023-01-28T11:58:54;100971.38;;;4.45;92.32
42725;BME280;28369;44.046;23.014;2023-01-28T12:01:02;101154.00;;;5.71;93.41
